sensor_id;sensor_type;location;lat;lon;timestamp;P1;durP1;ratioP1;P2;durP2;ratioP2
45326;SDS011;31062;49.678;24.560;2024-03-07T00:02:08;43.25;;;18.42;;
45326;SDS011;31062;49.678;24.560;2024-03-07T00:05:14;40.03;;;18.40;;
45326;SDS011;31062;49.678;24.560;2024-03-07T00:08:20;25.55;;;12.90;;
45326;SDS011;31062;49.678;24.560;2024-03-07T00:11:26;39.30;;;19.50;;
45326;SDS011;31062;49.678;24.560;2024-03-07T00:14:32;37.80;;;17.77;;
45326;SDS011;31062;49.678;24.560;2024-03-07T00:17:38;40.35;;;18.63;;
45326;SDS011;31062;49.678;24.560;2024-03-07T00:20:44;42.47;;;19.40;;
45326;SDS011;31062;49.678;24.560;2024-03-07T00:23:50;42.60;;;19.08;;
45326;SDS011;31062;49.678;24.560;2024-03-07T00:26:55;43.65;;;19.75;;
45326;SDS011;31062;49.678;24.560;2024-03-07T00:30:01;40.03;;;20.00;;
45326;SDS011;31062;49.678;24.560;2024-03-07T00:33:13;40.65;;;20.92;;
45326;SDS011;31062;49.678;24.560;2024-03-07T00:36:40;43.63;;;19.85;;
45326;SDS011;31062;49.678;24.560;2024-03-07T00:39:45;45.30;;;19.60;;
45326;SDS011;31062;49.678;24.560;2024-03-07T00:42:51;36.75;;;18.52;;
45326;SDS011;31062;49.678;24.560;2024-03-07T00:45:56;37.30;;;19.75;;
45326;SDS011;31062;49.678;24.560;2024-03-07T00:49:02;39.67;;;17.02;;
45326;SDS011;31062;49.678;24.560;2024-03-07T00:52:09;45.63;;;19.85;;
45326;SDS011;31062;49.678;24.560;2024-03-07T00:55:15;40.83;;;20.35;;
45326;SDS011;31062;49.678;24.560;2024-03-07T00:58:20;39.83;;;18.40;;
45326;SDS011;31062;49.678;24.560;2024-03-07T01:01:26;39.03;;;20.17;;
45326;SDS011;31062;49.678;24.560;2024-03-07T01:04:32;46.92;;;21.23;;
45326;SDS011;31062;49.678;24.560;2024-03-07T01:07:19;47.70;;;21.10;;
45326;SDS011;31062;49.678;24.560;2024-03-07T01:10:07;46.60;;;20.88;;
45326;SDS011;31062;49.678;24.560;2024-03-07T01:13:12;43.33;;;21.45;;
45326;SDS011;31062;49.678;24.560;2024-03-07T01:16:18;33.03;;;17.17;;
45326;SDS011;31062;49.678;24.560;2024-03-07T01:19:23;44.90;;;19.10;;
45326;SDS011;31062;49.678;24.560;2024-03-07T01:22:29;50.42;;;22.40;;
45326;SDS011;31062;49.678;24.560;2024-03-07T01:25:35;40.80;;;21.48;;
45326;SDS011;31062;49.678;24.560;2024-03-07T01:28:41;47.20;;;21.52;;
45326;SDS011;31062;49.678;24.560;2024-03-07T01:31:47;49.05;;;21.23;;
45326;SDS011;31062;49.678;24.560;2024-03-07T01:34:53;44.75;;;21.35;;
45326;SDS011;31062;49.678;24.560;2024-03-07T01:37:58;43.15;;;17.83;;
45326;SDS011;31062;49.678;24.560;2024-03-07T01:41:04;44.75;;;21.02;;
45326;SDS011;31062;49.678;24.560;2024-03-07T01:44:09;44.33;;;20.70;;
45326;SDS011;31062;49.678;24.560;2024-03-07T01:47:15;41.85;;;21.20;;
45326;SDS011;31062;49.678;24.560;2024-03-07T01:50:21;45.72;;;20.80;;
45326;SDS011;31062;49.678;24.560;2024-03-07T01:53:27;41.17;;;20.67;;
45326;SDS011;31062;49.678;24.560;2024-03-07T01:56:35;48.70;;;21.17;;
45326;SDS011;31062;49.678;24.560;2024-03-07T01:59:42;46.20;;;22.27;;
45326;SDS011;31062;49.678;24.560;2024-03-07T02:02:52;32.33;;;16.83;;
45326;SDS011;31062;49.678;24.560;2024-03-07T02:05:58;44.20;;;20.15;;
45326;SDS011;31062;49.678;24.560;2024-03-07T02:09:03;43.28;;;19.98;;
45326;SDS011;31062;49.678;24.560;2024-03-07T02:12:12;38.33;;;18.77;;
45326;SDS011;31062;49.678;24.560;2024-03-07T02:15:18;44.33;;;20.20;;
45326;SDS011;31062;49.678;24.560;2024-03-07T02:18:23;45.25;;;20.35;;
45326;SDS011;31062;49.678;24.560;2024-03-07T02:21:30;41.90;;;18.63;;
45326;SDS011;31062;49.678;24.560;2024-03-07T02:24:36;43.28;;;18.80;;
45326;SDS011;31062;49.678;24.560;2024-03-07T02:27:41;39.60;;;18.98;;
45326;SDS011;31062;49.678;24.560;2024-03-07T02:30:47;37.80;;;19.02;;
45326;SDS011;31062;49.678;24.560;2024-03-07T02:33:53;35.97;;;18.88;;
45326;SDS011;31062;49.678;24.560;2024-03-07T02:36:59;38.90;;;19.67;;
45326;SDS011;31062;49.678;24.560;2024-03-07T02:40:07;37.38;;;18.52;;
45326;SDS011;31062;49.678;24.560;2024-03-07T02:43:13;31.23;;;16.95;;
45326;SDS011;31062;49.678;24.560;2024-03-07T02:46:19;32.72;;;15.52;;
45326;SDS011;31062;49.678;24.560;2024-03-07T02:49:24;31.02;;;15.68;;
45326;SDS011;31062;49.678;24.560;2024-03-07T02:52:30;33.03;;;15.55;;
45326;SDS011;31062;49.678;24.560;2024-03-07T02:55:35;32.30;;;15.52;;
45326;SDS011;31062;49.678;24.560;2024-03-07T02:58:41;30.15;;;14.75;;
45326;SDS011;31062;49.678;24.560;2024-03-07T03:01:49;28.73;;;14.68;;
45326;SDS011;31062;49.678;24.560;2024-03-07T03:04:55;28.15;;;14.85;;
45326;SDS011;31062;49.678;24.560;2024-03-07T03:08:01;23.23;;;13.43;;
45326;SDS011;31062;49.678;24.560;2024-03-07T03:10:47;22.73;;;11.77;;
45326;SDS011;31062;49.678;24.560;2024-03-07T03:13:38;26.80;;;13.73;;
45326;SDS011;31062;49.678;24.560;2024-03-07T03:16:23;23.55;;;13.25;;
45326;SDS011;31062;49.678;24.560;2024-03-07T03:19:29;26.25;;;13.10;;
45326;SDS011;31062;49.678;24.560;2024-03-07T03:22:15;25.92;;;13.30;;
45326;SDS011;31062;49.678;24.560;2024-03-07T03:25:00;25.10;;;13.80;;
45326;SDS011;31062;49.678;24.560;2024-03-07T03:27:49;30.27;;;14.80;;
45326;SDS011;31062;49.678;24.560;2024-03-07T03:30:38;27.73;;;13.43;;
45326;SDS011;31062;49.678;24.560;2024-03-07T03:33:26;25.80;;;13.50;;
45326;SDS011;31062;49.678;24.560;2024-03-07T03:36:13;28.05;;;13.90;;
45326;SDS011;31062;49.678;24.560;2024-03-07T03:39:00;55.22;;;28.15;;
45326;SDS011;31062;49.678;24.560;2024-03-07T03:41:46;15.35;;;9.13;;
45326;SDS011;31062;49.678;24.560;2024-03-07T03:44:32;34.75;;;17.45;;
45326;SDS011;31062;49.678;24.560;2024-03-07T03:47:20;33.75;;;19.15;;
45326;SDS011;31062;49.678;24.560;2024-03-07T03:50:05;25.73;;;14.85;;
45326;SDS011;31062;49.678;24.560;2024-03-07T03:52:52;22.40;;;12.55;;
45326;SDS011;31062;49.678;24.560;2024-03-07T03:55:38;22.25;;;12.15;;
45326;SDS011;31062;49.678;24.560;2024-03-07T03:58:24;22.58;;;12.23;;
45326;SDS011;31062;49.678;24.560;2024-03-07T04:01:10;24.77;;;11.93;;
45326;SDS011;31062;49.678;24.560;2024-03-07T04:04:00;19.88;;;9.88;;
45326;SDS011;31062;49.678;24.560;2024-03-07T04:06:46;23.75;;;11.80;;
45326;SDS011;31062;49.678;24.560;2024-03-07T04:09:32;35.53;;;16.60;;
45326;SDS011;31062;49.678;24.560;2024-03-07T04:12:18;38.75;;;20.63;;
45326;SDS011;31062;49.678;24.560;2024-03-07T04:15:06;44.55;;;24.55;;
45326;SDS011;31062;49.678;24.560;2024-03-07T04:17:56;45.42;;;25.35;;
45326;SDS011;31062;49.678;24.560;2024-03-07T04:20:42;27.92;;;16.70;;
45326;SDS011;31062;49.678;24.560;2024-03-07T04:23:30;31.67;;;17.15;;
45326;SDS011;31062;49.678;24.560;2024-03-07T04:26:16;18.90;;;11.68;;
45326;SDS011;31062;49.678;24.560;2024-03-07T04:29:21;20.35;;;12.70;;
45326;SDS011;31062;49.678;24.560;2024-03-07T04:32:27;17.92;;;10.55;;
45326;SDS011;31062;49.678;24.560;2024-03-07T04:35:33;23.05;;;10.95;;
45326;SDS011;31062;49.678;24.560;2024-03-07T04:38:38;23.45;;;12.15;;
45326;SDS011;31062;49.678;24.560;2024-03-07T04:41:44;19.52;;;11.38;;
45326;SDS011;31062;49.678;24.560;2024-03-07T04:44:50;17.67;;;10.77;;
45326;SDS011;31062;49.678;24.560;2024-03-07T04:47:56;19.02;;;10.55;;
45326;SDS011;31062;49.678;24.560;2024-03-07T04:51:02;19.60;;;10.75;;
45326;SDS011;31062;49.678;24.560;2024-03-07T04:54:08;21.05;;;12.10;;
45326;SDS011;31062;49.678;24.560;2024-03-07T04:57:13;23.52;;;11.20;;
45326;SDS011;31062;49.678;24.560;2024-03-07T05:00:19;19.00;;;9.85;;
45326;SDS011;31062;49.678;24.560;2024-03-07T05:03:24;15.55;;;10.95;;
45326;SDS011;31062;49.678;24.560;2024-03-07T05:06:30;18.25;;;10.65;;
45326;SDS011;31062;49.678;24.560;2024-03-07T05:09:35;15.95;;;10.60;;
45326;SDS011;31062;49.678;24.560;2024-03-07T05:12:42;38.03;;;18.77;;
45326;SDS011;31062;49.678;24.560;2024-03-07T05:15:48;34.80;;;17.50;;
45326;SDS011;31062;49.678;24.560;2024-03-07T05:18:53;19.42;;;12.32;;
45326;SDS011;31062;49.678;24.560;2024-03-07T05:21:59;22.40;;;11.77;;
45326;SDS011;31062;49.678;24.560;2024-03-07T05:25:06;21.38;;;11.30;;
45326;SDS011;31062;49.678;24.560;2024-03-07T05:28:12;20.27;;;11.52;;
45326;SDS011;31062;49.678;24.560;2024-03-07T05:31:18;18.73;;;10.48;;
45326;SDS011;31062;49.678;24.560;2024-03-07T05:34:24;17.05;;;9.75;;
45326;SDS011;31062;49.678;24.560;2024-03-07T05:37:29;28.13;;;14.82;;
45326;SDS011;31062;49.678;24.560;2024-03-07T05:40:35;26.73;;;15.80;;
45326;SDS011;31062;49.678;24.560;2024-03-07T05:43:41;19.73;;;11.43;;
45326;SDS011;31062;49.678;24.560;2024-03-07T05:46:49;22.35;;;12.77;;
45326;SDS011;31062;49.678;24.560;2024-03-07T05:49:54;18.17;;;9.82;;
45326;SDS011;31062;49.678;24.560;2024-03-07T05:53:00;16.60;;;10.88;;
45326;SDS011;31062;49.678;24.560;2024-03-07T05:56:06;20.13;;;10.60;;
45326;SDS011;31062;49.678;24.560;2024-03-07T05:58:52;16.85;;;9.48;;
45326;SDS011;31062;49.678;24.560;2024-03-07T06:01:37;16.90;;;9.93;;
45326;SDS011;31062;49.678;24.560;2024-03-07T06:04:24;19.17;;;10.32;;
45326;SDS011;31062;49.678;24.560;2024-03-07T06:07:10;19.27;;;10.60;;
45326;SDS011;31062;49.678;24.560;2024-03-07T06:09:56;18.70;;;9.65;;
45326;SDS011;31062;49.678;24.560;2024-03-07T06:12:41;17.17;;;8.77;;
45326;SDS011;31062;49.678;24.560;2024-03-07T06:15:49;19.92;;;10.65;;
45326;SDS011;31062;49.678;24.560;2024-03-07T06:18:35;18.55;;;10.73;;
45326;SDS011;31062;49.678;24.560;2024-03-07T06:21:21;19.00;;;10.40;;
45326;SDS011;31062;49.678;24.560;2024-03-07T06:24:07;19.90;;;9.45;;
45326;SDS011;31062;49.678;24.560;2024-03-07T06:26:56;17.63;;;10.90;;
45326;SDS011;31062;49.678;24.560;2024-03-07T06:29:45;17.20;;;11.23;;
45326;SDS011;31062;49.678;24.560;2024-03-07T06:32:31;20.90;;;11.60;;
45326;SDS011;31062;49.678;24.560;2024-03-07T06:35:17;14.80;;;8.82;;
45326;SDS011;31062;49.678;24.560;2024-03-07T06:38:05;16.23;;;9.88;;
45326;SDS011;31062;49.678;24.560;2024-03-07T06:40:53;20.25;;;10.70;;
45326;SDS011;31062;49.678;24.560;2024-03-07T06:44:00;20.90;;;10.50;;
45326;SDS011;31062;49.678;24.560;2024-03-07T06:47:05;18.70;;;10.40;;
45326;SDS011;31062;49.678;24.560;2024-03-07T06:50:11;17.08;;;10.52;;
45326;SDS011;31062;49.678;24.560;2024-03-07T06:53:23;31.00;;;17.27;;
45326;SDS011;31062;49.678;24.560;2024-03-07T06:56:28;27.38;;;12.13;;
45326;SDS011;31062;49.678;24.560;2024-03-07T06:59:35;22.80;;;12.65;;
45326;SDS011;31062;49.678;24.560;2024-03-07T07:02:41;22.90;;;12.55;;
45326;SDS011;31062;49.678;24.560;2024-03-07T07:05:27;22.27;;;10.50;;
45326;SDS011;31062;49.678;24.560;2024-03-07T07:08:33;22.40;;;12.73;;
45326;SDS011;31062;49.678;24.560;2024-03-07T07:11:39;23.52;;;12.30;;
45326;SDS011;31062;49.678;24.560;2024-03-07T07:14:44;24.25;;;12.70;;
45326;SDS011;31062;49.678;24.560;2024-03-07T07:17:30;25.30;;;14.15;;
45326;SDS011;31062;49.678;24.560;2024-03-07T07:20:16;27.95;;;13.77;;
45326;SDS011;31062;49.678;24.560;2024-03-07T07:23:02;23.20;;;11.60;;
45326;SDS011;31062;49.678;24.560;2024-03-07T07:25:49;23.98;;;12.40;;
45326;SDS011;31062;49.678;24.560;2024-03-07T07:28:35;24.23;;;12.95;;
45326;SDS011;31062;49.678;24.560;2024-03-07T07:31:22;26.70;;;13.73;;
45326;SDS011;31062;49.678;24.560;2024-03-07T07:34:08;22.58;;;13.18;;
45326;SDS011;31062;49.678;24.560;2024-03-07T07:36:55;26.67;;;13.70;;
45326;SDS011;31062;49.678;24.560;2024-03-07T07:39:40;34.22;;;17.92;;
45326;SDS011;31062;49.678;24.560;2024-03-07T07:42:46;37.13;;;14.57;;
45326;SDS011;31062;49.678;24.560;2024-03-07T07:45:53;31.55;;;14.25;;
45326;SDS011;31062;49.678;24.560;2024-03-07T07:48:59;27.73;;;12.88;;
45326;SDS011;31062;49.678;24.560;2024-03-07T07:52:06;22.90;;;12.98;;
45326;SDS011;31062;49.678;24.560;2024-03-07T07:55:12;28.38;;;14.73;;
45326;SDS011;31062;49.678;24.560;2024-03-07T07:58:21;25.50;;;13.05;;
45326;SDS011;31062;49.678;24.560;2024-03-07T08:01:27;21.05;;;12.07;;
45326;SDS011;31062;49.678;24.560;2024-03-07T08:04:32;21.75;;;13.02;;
45326;SDS011;31062;49.678;24.560;2024-03-07T08:07:38;23.83;;;13.90;;
45326;SDS011;31062;49.678;24.560;2024-03-07T08:10:44;30.85;;;17.80;;
45326;SDS011;31062;49.678;24.560;2024-03-07T08:13:50;32.13;;;14.65;;
45326;SDS011;31062;49.678;24.560;2024-03-07T08:16:55;24.45;;;13.30;;
45326;SDS011;31062;49.678;24.560;2024-03-07T08:20:01;12.93;;;7.88;;
45326;SDS011;31062;49.678;24.560;2024-03-07T08:23:06;17.77;;;10.80;;
45326;SDS011;31062;49.678;24.560;2024-03-07T08:26:12;17.33;;;10.35;;
45326;SDS011;31062;49.678;24.560;2024-03-07T08:29:18;23.08;;;11.88;;
45326;SDS011;31062;49.678;24.560;2024-03-07T08:32:45;20.42;;;11.90;;
45326;SDS011;31062;49.678;24.560;2024-03-07T08:35:52;22.13;;;11.80;;
45326;SDS011;31062;49.678;24.560;2024-03-07T08:38:58;20.08;;;12.10;;
45326;SDS011;31062;49.678;24.560;2024-03-07T08:42:03;11.90;;;7.63;;
45326;SDS011;31062;49.678;24.560;2024-03-07T08:45:09;15.88;;;8.38;;
45326;SDS011;31062;49.678;24.560;2024-03-07T08:48:15;18.38;;;11.57;;
45326;SDS011;31062;49.678;24.560;2024-03-07T08:51:21;23.17;;;11.18;;
45326;SDS011;31062;49.678;24.560;2024-03-07T08:54:26;19.35;;;11.20;;
45326;SDS011;31062;49.678;24.560;2024-03-07T08:57:32;21.33;;;11.48;;
45326;SDS011;31062;49.678;24.560;2024-03-07T09:00:38;24.92;;;13.00;;
45326;SDS011;31062;49.678;24.560;2024-03-07T09:03:43;22.45;;;11.93;;
45326;SDS011;31062;49.678;24.560;2024-03-07T09:06:49;20.45;;;11.55;;
45326;SDS011;31062;49.678;24.560;2024-03-07T09:09:55;38.80;;;19.95;;
45326;SDS011;31062;49.678;24.560;2024-03-07T09:13:01;16.88;;;10.20;;
45326;SDS011;31062;49.678;24.560;2024-03-07T09:16:07;29.08;;;13.77;;
45326;SDS011;31062;49.678;24.560;2024-03-07T09:46:15;72.53;;;30.00;;
45326;SDS011;31062;49.678;24.560;2024-03-07T09:49:21;40.97;;;22.75;;
45326;SDS011;31062;49.678;24.560;2024-03-07T09:52:27;22.92;;;12.98;;
45326;SDS011;31062;49.678;24.560;2024-03-07T09:55:23;20.08;;;11.43;;
45326;SDS011;31062;49.678;24.560;2024-03-07T10:01:55;11.05;;;7.35;;
45326;SDS011;31062;49.678;24.560;2024-03-07T10:04:43;15.50;;;9.52;;
45326;SDS011;31062;49.678;24.560;2024-03-07T10:07:33;17.10;;;9.55;;
45326;SDS011;31062;49.678;24.560;2024-03-07T10:10:20;21.80;;;10.48;;
45326;SDS011;31062;49.678;24.560;2024-03-07T10:13:07;18.50;;;9.80;;
45326;SDS011;31062;49.678;24.560;2024-03-07T10:15:56;15.70;;;9.65;;
45326;SDS011;31062;49.678;24.560;2024-03-07T10:18:46;16.90;;;10.18;;
45326;SDS011;31062;49.678;24.560;2024-03-07T10:21:33;31.17;;;17.13;;
45326;SDS011;31062;49.678;24.560;2024-03-07T10:24:23;23.20;;;14.48;;
45326;SDS011;31062;49.678;24.560;2024-03-07T10:27:09;23.83;;;12.07;;
45326;SDS011;31062;49.678;24.560;2024-03-07T10:29:56;17.55;;;11.18;;
45326;SDS011;31062;49.678;24.560;2024-03-07T10:32:42;26.13;;;14.00;;
45326;SDS011;31062;49.678;24.560;2024-03-07T10:35:47;18.15;;;9.35;;
45326;SDS011;31062;49.678;24.560;2024-03-07T10:39:04;19.10;;;10.02;;
45326;SDS011;31062;49.678;24.560;2024-03-07T10:42:20;20.27;;;9.32;;
45326;SDS011;31062;49.678;24.560;2024-03-07T10:45:27;18.90;;;11.10;;
45326;SDS011;31062;49.678;24.560;2024-03-07T10:48:35;20.40;;;11.75;;
45326;SDS011;31062;49.678;24.560;2024-03-07T10:55:03;20.92;;;11.70;;
45326;SDS011;31062;49.678;24.560;2024-03-07T10:58:23;19.48;;;11.45;;
45326;SDS011;31062;49.678;24.560;2024-03-07T11:01:31;23.15;;;12.52;;
45326;SDS011;31062;49.678;24.560;2024-03-07T11:04:40;24.35;;;14.88;;
45326;SDS011;31062;49.678;24.560;2024-03-07T11:07:45;26.42;;;14.45;;
45326;SDS011;31062;49.678;24.560;2024-03-07T11:10:51;16.35;;;10.75;;
45326;SDS011;31062;49.678;24.560;2024-03-07T11:13:57;17.33;;;9.80;;
45326;SDS011;31062;49.678;24.560;2024-03-07T11:17:22;19.92;;;9.25;;
45326;SDS011;31062;49.678;24.560;2024-03-07T11:20:36;16.58;;;10.98;;
45326;SDS011;31062;49.678;24.560;2024-03-07T11:23:44;22.23;;;9.07;;
45326;SDS011;31062;49.678;24.560;2024-03-07T11:26:51;22.10;;;11.88;;
45326;SDS011;31062;49.678;24.560;2024-03-07T11:30:04;17.30;;;10.10;;
45326;SDS011;31062;49.678;24.560;2024-03-07T11:33:11;13.65;;;9.00;;
45326;SDS011;31062;49.678;24.560;2024-03-07T11:36:41;16.10;;;10.35;;
45326;SDS011;31062;49.678;24.560;2024-03-07T11:39:52;14.73;;;8.35;;
45326;SDS011;31062;49.678;24.560;2024-03-07T11:43:00;17.08;;;10.70;;
45326;SDS011;31062;49.678;24.560;2024-03-07T11:46:07;14.77;;;10.07;;
45326;SDS011;31062;49.678;24.560;2024-03-07T11:48:57;34.40;;;15.70;;
45326;SDS011;31062;49.678;24.560;2024-03-07T11:52:03;34.95;;;16.20;;
45326;SDS011;31062;49.678;24.560;2024-03-07T11:55:09;20.40;;;12.20;;
45326;SDS011;31062;49.678;24.560;2024-03-07T12:01:22;21.05;;;11.13;;
45326;SDS011;31062;49.678;24.560;2024-03-07T12:04:28;20.25;;;11.75;;
45326;SDS011;31062;49.678;24.560;2024-03-07T12:07:34;23.55;;;13.25;;
45326;SDS011;31062;49.678;24.560;2024-03-07T12:10:41;40.03;;;17.52;;
45326;SDS011;31062;49.678;24.560;2024-03-07T12:13:50;17.58;;;10.88;;
45326;SDS011;31062;49.678;24.560;2024-03-07T12:16:57;15.50;;;10.20;;
45326;SDS011;31062;49.678;24.560;2024-03-07T12:20:04;16.25;;;9.68;;
45326;SDS011;31062;49.678;24.560;2024-03-07T12:23:11;13.43;;;9.20;;
45326;SDS011;31062;49.678;24.560;2024-03-07T12:26:19;16.58;;;10.02;;
45326;SDS011;31062;49.678;24.560;2024-03-07T12:29:25;18.38;;;10.80;;
45326;SDS011;31062;49.678;24.560;2024-03-07T12:32:31;65.22;;;24.58;;
45326;SDS011;31062;49.678;24.560;2024-03-07T12:35:38;22.98;;;12.38;;
45326;SDS011;31062;49.678;24.560;2024-03-07T12:38:44;15.63;;;8.23;;
45326;SDS011;31062;49.678;24.560;2024-03-07T12:41:50;15.43;;;9.68;;
45326;SDS011;31062;49.678;24.560;2024-03-07T12:44:59;19.50;;;9.63;;
45326;SDS011;31062;49.678;24.560;2024-03-07T12:48:06;15.13;;;9.18;;
45326;SDS011;31062;49.678;24.560;2024-03-07T12:51:12;25.50;;;12.82;;
45326;SDS011;31062;49.678;24.560;2024-03-07T12:54:18;51.72;;;23.52;;
45326;SDS011;31062;49.678;24.560;2024-03-07T12:57:24;18.42;;;10.48;;
45326;SDS011;31062;49.678;24.560;2024-03-07T13:00:30;23.50;;;13.00;;
45326;SDS011;31062;49.678;24.560;2024-03-07T13:03:35;24.25;;;13.70;;
45326;SDS011;31062;49.678;24.560;2024-03-07T13:06:41;44.40;;;17.85;;
45326;SDS011;31062;49.678;24.560;2024-03-07T13:09:51;92.97;;;36.35;;
45326;SDS011;31062;49.678;24.560;2024-03-07T13:12:57;27.02;;;15.32;;
45326;SDS011;31062;49.678;24.560;2024-03-07T13:16:03;55.60;;;22.08;;
45326;SDS011;31062;49.678;24.560;2024-03-07T13:19:11;12.10;;;9.00;;
45326;SDS011;31062;49.678;24.560;2024-03-07T13:22:17;17.35;;;9.88;;
45326;SDS011;31062;49.678;24.560;2024-03-07T13:25:23;15.43;;;9.18;;
45326;SDS011;31062;49.678;24.560;2024-03-07T13:28:31;21.90;;;11.77;;
45326;SDS011;31062;49.678;24.560;2024-03-07T13:31:37;16.85;;;9.15;;
45326;SDS011;31062;49.678;24.560;2024-03-07T13:34:43;18.52;;;9.38;;
45326;SDS011;31062;49.678;24.560;2024-03-07T13:37:49;14.73;;;9.45;;
45326;SDS011;31062;49.678;24.560;2024-03-07T13:40:55;17.23;;;10.70;;
45326;SDS011;31062;49.678;24.560;2024-03-07T13:44:02;16.23;;;8.85;;
45326;SDS011;31062;49.678;24.560;2024-03-07T13:47:08;18.05;;;10.35;;
45326;SDS011;31062;49.678;24.560;2024-03-07T13:50:18;11.80;;;8.80;;
45326;SDS011;31062;49.678;24.560;2024-03-07T13:53:41;28.75;;;14.30;;
45326;SDS011;31062;49.678;24.560;2024-03-07T13:56:55;22.77;;;10.20;;
45326;SDS011;31062;49.678;24.560;2024-03-07T14:00:21;17.08;;;9.00;;
45326;SDS011;31062;49.678;24.560;2024-03-07T14:14:26;13.20;;;8.77;;
45326;SDS011;31062;49.678;24.560;2024-03-07T14:17:59;11.57;;;8.63;;
45326;SDS011;31062;49.678;24.560;2024-03-07T14:21:27;13.25;;;7.75;;
45326;SDS011;31062;49.678;24.560;2024-03-07T14:28:33;10.93;;;7.57;;
45326;SDS011;31062;49.678;24.560;2024-03-07T14:31:33;16.23;;;8.18;;
45326;SDS011;31062;49.678;24.560;2024-03-07T14:34:56;14.68;;;8.85;;
45326;SDS011;31062;49.678;24.560;2024-03-07T14:38:06;15.02;;;7.47;;
45326;SDS011;31062;49.678;24.560;2024-03-07T14:44:55;14.43;;;8.73;;
45326;SDS011;31062;49.678;24.560;2024-03-07T14:47:42;16.15;;;8.85;;
45326;SDS011;31062;49.678;24.560;2024-03-07T14:50:30;13.60;;;8.43;;
45326;SDS011;31062;49.678;24.560;2024-03-07T14:53:18;11.85;;;8.18;;
45326;SDS011;31062;49.678;24.560;2024-03-07T14:56:05;17.45;;;8.40;;
45326;SDS011;31062;49.678;24.560;2024-03-07T14:58:51;10.25;;;6.78;;
45326;SDS011;31062;49.678;24.560;2024-03-07T15:01:37;11.45;;;8.23;;
45326;SDS011;31062;49.678;24.560;2024-03-07T15:04:23;14.10;;;8.70;;
45326;SDS011;31062;49.678;24.560;2024-03-07T15:07:09;17.88;;;10.02;;
45326;SDS011;31062;49.678;24.560;2024-03-07T15:09:55;16.15;;;9.05;;
45326;SDS011;31062;49.678;24.560;2024-03-07T15:12:47;14.73;;;8.38;;
45326;SDS011;31062;49.678;24.560;2024-03-07T15:15:33;11.27;;;6.68;;
45326;SDS011;31062;49.678;24.560;2024-03-07T15:18:19;12.10;;;7.97;;
45326;SDS011;31062;49.678;24.560;2024-03-07T15:21:25;19.20;;;10.27;;
45326;SDS011;31062;49.678;24.560;2024-03-07T15:24:31;20.50;;;10.63;;
45326;SDS011;31062;49.678;24.560;2024-03-07T15:27:38;16.92;;;10.38;;
45326;SDS011;31062;49.678;24.560;2024-03-07T15:30:45;16.95;;;9.00;;
45326;SDS011;31062;49.678;24.560;2024-03-07T15:33:51;18.73;;;11.13;;
45326;SDS011;31062;49.678;24.560;2024-03-07T15:36:59;20.77;;;11.75;;
45326;SDS011;31062;49.678;24.560;2024-03-07T15:40:07;14.48;;;9.85;;
45326;SDS011;31062;49.678;24.560;2024-03-07T15:43:13;12.32;;;8.70;;
45326;SDS011;31062;49.678;24.560;2024-03-07T15:46:19;10.93;;;7.43;;
45326;SDS011;31062;49.678;24.560;2024-03-07T15:49:25;14.45;;;9.60;;
45326;SDS011;31062;49.678;24.560;2024-03-07T15:52:31;12.05;;;8.80;;
45326;SDS011;31062;49.678;24.560;2024-03-07T15:55:37;12.23;;;7.90;;
45326;SDS011;31062;49.678;24.560;2024-03-07T15:58:42;15.20;;;9.00;;
45326;SDS011;31062;49.678;24.560;2024-03-07T16:01:48;14.48;;;8.23;;
45326;SDS011;31062;49.678;24.560;2024-03-07T16:04:54;15.57;;;8.43;;
45326;SDS011;31062;49.678;24.560;2024-03-07T16:08:01;12.20;;;8.05;;
45326;SDS011;31062;49.678;24.560;2024-03-07T16:11:07;11.25;;;8.25;;
45326;SDS011;31062;49.678;24.560;2024-03-07T16:14:13;11.75;;;8.10;;
45326;SDS011;31062;49.678;24.560;2024-03-07T16:17:19;12.15;;;8.68;;
45326;SDS011;31062;49.678;24.560;2024-03-07T16:20:25;14.52;;;8.07;;
45326;SDS011;31062;49.678;24.560;2024-03-07T16:23:33;11.88;;;7.35;;
45326;SDS011;31062;49.678;24.560;2024-03-07T16:26:39;12.32;;;8.10;;
45326;SDS011;31062;49.678;24.560;2024-03-07T16:29:46;16.13;;;9.45;;
45326;SDS011;31062;49.678;24.560;2024-03-07T16:32:33;12.15;;;8.02;;
45326;SDS011;31062;49.678;24.560;2024-03-07T16:35:20;15.52;;;7.78;;
45326;SDS011;31062;49.678;24.560;2024-03-07T16:38:07;16.92;;;7.90;;
45326;SDS011;31062;49.678;24.560;2024-03-07T16:40:55;12.50;;;7.82;;
45326;SDS011;31062;49.678;24.560;2024-03-07T16:43:41;21.95;;;12.55;;
45326;SDS011;31062;49.678;24.560;2024-03-07T16:46:27;13.88;;;7.80;;
45326;SDS011;31062;49.678;24.560;2024-03-07T16:49:33;11.60;;;7.75;;
45326;SDS011;31062;49.678;24.560;2024-03-07T16:52:39;12.85;;;8.05;;
45326;SDS011;31062;49.678;24.560;2024-03-07T16:55:44;13.52;;;7.55;;
45326;SDS011;31062;49.678;24.560;2024-03-07T16:58:50;11.98;;;7.32;;
45326;SDS011;31062;49.678;24.560;2024-03-07T17:01:56;11.50;;;7.47;;
45326;SDS011;31062;49.678;24.560;2024-03-07T17:04:43;11.90;;;7.22;;
45326;SDS011;31062;49.678;24.560;2024-03-07T17:07:28;16.58;;;7.93;;
45326;SDS011;31062;49.678;24.560;2024-03-07T17:10:16;25.25;;;11.77;;
45326;SDS011;31062;49.678;24.560;2024-03-07T17:13:02;21.23;;;10.88;;
45326;SDS011;31062;49.678;24.560;2024-03-07T17:16:09;16.38;;;8.55;;
45326;SDS011;31062;49.678;24.560;2024-03-07T17:18:55;22.08;;;10.43;;
45326;SDS011;31062;49.678;24.560;2024-03-07T17:22:02;27.85;;;13.23;;
45326;SDS011;31062;49.678;24.560;2024-03-07T17:25:08;19.20;;;11.48;;
45326;SDS011;31062;49.678;24.560;2024-03-07T17:28:15;18.13;;;10.30;;
45326;SDS011;31062;49.678;24.560;2024-03-07T17:31:21;13.20;;;8.60;;
45326;SDS011;31062;49.678;24.560;2024-03-07T17:34:27;18.23;;;9.65;;
45326;SDS011;31062;49.678;24.560;2024-03-07T17:37:33;15.23;;;9.88;;
45326;SDS011;31062;49.678;24.560;2024-03-07T17:40:39;13.80;;;8.27;;
45326;SDS011;31062;49.678;24.560;2024-03-07T17:43:45;26.80;;;12.43;;
45326;SDS011;31062;49.678;24.560;2024-03-07T17:46:51;15.50;;;8.88;;
45326;SDS011;31062;49.678;24.560;2024-03-07T17:49:37;16.70;;;9.10;;
45326;SDS011;31062;49.678;24.560;2024-03-07T17:52:49;12.15;;;8.35;;
45326;SDS011;31062;49.678;24.560;2024-03-07T17:55:57;20.17;;;9.95;;
45326;SDS011;31062;49.678;24.560;2024-03-07T17:58:43;14.85;;;9.43;;
45326;SDS011;31062;49.678;24.560;2024-03-07T18:01:31;14.65;;;8.82;;
45326;SDS011;31062;49.678;24.560;2024-03-07T18:04:37;11.18;;;8.00;;
45326;SDS011;31062;49.678;24.560;2024-03-07T18:07:43;11.35;;;7.03;;
45326;SDS011;31062;49.678;24.560;2024-03-07T18:11:07;11.98;;;8.00;;
45326;SDS011;31062;49.678;24.560;2024-03-07T18:14:13;12.18;;;6.53;;
45326;SDS011;31062;49.678;24.560;2024-03-07T18:17:19;20.45;;;9.60;;
45326;SDS011;31062;49.678;24.560;2024-03-07T18:20:26;28.60;;;12.18;;
45326;SDS011;31062;49.678;24.560;2024-03-07T18:23:32;18.80;;;10.32;;
45326;SDS011;31062;49.678;24.560;2024-03-07T18:26:38;13.23;;;8.45;;
45326;SDS011;31062;49.678;24.560;2024-03-07T18:29:44;15.98;;;8.30;;